createdAt,value
2023-11-07T00:01:33.116Z,8.3
2023-11-07T00:03:59.094Z,8.3
2023-11-07T00:06:24.284Z,8.3
2023-11-07T00:08:50.393Z,8.2
2023-11-07T00:11:16.477Z,8.2
2023-11-07T00:13:42.526Z,8.2
2023-11-07T00:16:08.652Z,8.2
2023-11-07T00:18:34.469Z,8.2
2023-11-07T00:21:00.749Z,8.2
2023-11-07T00:23:26.647Z,8.3
2023-11-07T00:25:53.063Z,8.3
2023-11-07T00:28:19.237Z,8.3
2023-11-07T00:30:44.940Z,8.5
2023-11-07T00:33:11.152Z,8.7
2023-11-07T00:35:37.390Z,8.8
2023-11-07T00:38:02.675Z,8.9
2023-11-07T00:40:28.611Z,8.9
2023-11-07T00:42:54.756Z,8.8
2023-11-07T00:45:20.792Z,8.8
2023-11-07T00:47:46.641Z,8.8
2023-11-07T00:50:13.064Z,8.7
2023-11-07T00:52:39.106Z,8.6
2023-11-07T00:55:05.195Z,8.5
2023-11-07T00:57:31.001Z,8.5
2023-11-07T00:59:57.370Z,8.3
2023-11-07T01:02:23.453Z,8.2
2023-11-07T01:04:49.503Z,8.1
2023-11-07T01:07:15.515Z,8
2023-11-07T01:09:40.490Z,7.8
2023-11-07T01:12:06.868Z,7.7
2023-11-07T01:14:32.672Z,7.6
2023-11-07T01:16:59.092Z,7.5
2023-11-07T01:19:25.166Z,7.4
2023-11-07T01:21:51.107Z,7.4
2023-11-07T01:24:17.202Z,7.3
2023-11-07T01:26:43.150Z,7.2
2023-11-07T01:29:09.552Z,7.2
2023-11-07T01:31:35.597Z,7.1
2023-11-07T01:34:01.776Z,7.1
2023-11-07T01:36:27.876Z,7
2023-11-07T01:38:53.633Z,7
2023-11-07T01:41:19.064Z,7
2023-11-07T01:43:45.036Z,7
2023-11-07T01:46:11.207Z,7
2023-11-07T01:48:37.003Z,7
2023-11-07T01:51:03.215Z,7
2023-11-07T01:53:29.502Z,7
2023-11-07T01:55:55.612Z,6.9
2023-11-07T01:58:21.593Z,6.9
2023-11-07T02:00:47.776Z,6.8
2023-11-07T02:03:13.749Z,6.8
2023-11-07T02:05:39.856Z,6.7
2023-11-07T02:08:06.112Z,6.7
2023-11-07T02:10:32.122Z,6.6
2023-11-07T02:12:57.338Z,6.6
2023-11-07T02:15:23.136Z,6.5
2023-11-07T02:17:49.402Z,6.5
2023-11-07T02:20:15.757Z,6.5
2023-11-07T02:22:41.672Z,6.4
2023-11-07T02:25:07.734Z,6.3
2023-11-07T02:27:33.873Z,6.3
2023-11-07T02:29:59.953Z,6.3
2023-11-07T02:32:25.802Z,6.3
2023-11-07T02:34:52.127Z,6.3
2023-11-07T02:37:18.133Z,6.3
2023-11-07T02:39:44.368Z,6.3
2023-11-07T02:42:10.405Z,6.3
2023-11-07T02:44:35.241Z,6.3
2023-11-07T02:47:01.622Z,6.4
2023-11-07T02:49:27.423Z,6.4
2023-11-07T02:51:53.830Z,6.5
2023-11-07T02:54:19.944Z,6.6
2023-11-07T02:56:46.037Z,6.6
2023-11-07T02:59:12.147Z,6.7
2023-11-07T03:01:38.272Z,6.7
2023-11-07T03:04:04.179Z,6.8
2023-11-07T03:06:30.277Z,6.8
2023-11-07T03:08:56.456Z,6.9
2023-11-07T03:11:22.684Z,6.9
2023-11-07T03:13:48.666Z,7
2023-11-07T03:16:13.803Z,7.1
2023-11-07T03:18:39.806Z,7.1
2023-11-07T03:21:05.975Z,7.2
2023-11-07T03:23:32.051Z,7.2
2023-11-07T03:25:58.150Z,7.3
2023-11-07T03:28:24.274Z,7.4
2023-11-07T03:30:50.226Z,7.4
2023-11-07T03:33:16.394Z,7.5
2023-11-07T03:35:42.601Z,7.6
2023-11-07T03:38:08.663Z,7.7
2023-11-07T03:40:34.742Z,7.7
2023-11-07T03:43:00.810Z,7.8
2023-11-07T03:45:26.882Z,7.8
2023-11-07T03:47:51.986Z,7.9
2023-11-07T03:50:18.147Z,7.8
2023-11-07T03:52:44.159Z,7.8
2023-11-07T03:55:10.375Z,7.8
2023-11-07T03:57:36.423Z,7.7
2023-11-07T04:00:02.594Z,7.7
2023-11-07T04:02:28.544Z,7.7
2023-11-07T04:04:54.525Z,7.7
2023-11-07T04:07:20.703Z,7.6
2023-11-07T04:09:46.610Z,7.6
2023-11-07T04:12:12.999Z,7.5
2023-11-07T04:14:38.950Z,7.5
2023-11-07T04:17:05.040Z,7.4
2023-11-07T04:19:30.290Z,7.4
2023-11-07T04:21:56.088Z,7.3
2023-11-07T04:24:22.329Z,7.3
2023-11-07T04:26:48.512Z,7.4
2023-11-07T04:29:14.544Z,7.5
2023-11-07T04:31:40.478Z,7.6
2023-11-07T04:34:06.699Z,7.6
2023-11-07T04:36:32.851Z,7.7
2023-11-07T04:38:59.032Z,7.7
2023-11-07T04:41:25.029Z,7.6
2023-11-07T04:43:50.940Z,7.5
2023-11-07T04:46:17.036Z,7.5
2023-11-07T04:48:43.195Z,7.4
2023-11-07T04:51:08.542Z,7.4
2023-11-07T04:53:34.322Z,7.4
2023-11-07T04:56:00.420Z,7.4
2023-11-07T04:58:26.552Z,7.3
2023-11-07T05:00:52.684Z,7.3
2023-11-07T05:03:18.852Z,7.2
2023-11-07T05:05:44.913Z,7.2
2023-11-07T05:08:11.047Z,7.1
2023-11-07T05:10:37.208Z,7.1
2023-11-07T05:13:03.494Z,7.1
2023-11-07T05:15:29.473Z,7
2023-11-07T05:17:55.367Z,6.9
2023-11-07T05:20:21.501Z,6.8
2023-11-07T05:22:46.728Z,6.7
2023-11-07T05:25:12.870Z,6.7
2023-11-07T05:27:38.830Z,6.6
2023-11-07T05:30:04.908Z,6.5
2023-11-07T05:32:30.036Z,6.5
2023-11-07T05:34:56.072Z,6.4
2023-11-07T05:37:22.217Z,6.4
2023-11-07T05:39:48.348Z,6.4
2023-11-07T05:42:14.332Z,6.4
2023-11-07T05:44:40.390Z,6.4
2023-11-07T05:47:06.494Z,6.3
2023-11-07T05:49:32.670Z,6.3
2023-11-07T05:51:58.726Z,6.2
2023-11-07T05:54:24.796Z,6.2
2023-11-07T05:56:51.046Z,6.2
2023-11-07T05:59:17.118Z,6.3
2023-11-07T06:01:43.181Z,6.2
2023-11-07T06:04:09.301Z,6.3
2023-11-07T06:06:35.392Z,6.3
2023-11-07T06:09:01.464Z,6.3
2023-11-07T06:11:27.732Z,6.3
2023-11-07T06:13:53.514Z,6.3
2023-11-07T06:16:19.867Z,6.3
2023-11-07T06:18:46.109Z,6.2
2023-11-07T06:21:12.118Z,6.2
2023-11-07T06:23:38.113Z,6.2
2023-11-07T06:26:04.254Z,6.2
2023-11-07T06:28:30.350Z,6.2
2023-11-07T06:30:56.421Z,6.2
2023-11-07T06:33:21.543Z,6.2
2023-11-07T06:35:47.385Z,6.2
2023-11-07T06:38:13.612Z,6.2
2023-11-07T06:40:39.938Z,6.2
2023-11-07T06:43:05.819Z,6.2
2023-11-07T06:45:31.930Z,6.3
2023-11-07T06:47:57.960Z,6.4
2023-11-07T06:50:23.951Z,6.4
2023-11-07T06:52:50.120Z,6.4
2023-11-07T06:55:16.206Z,6.4
2023-11-07T06:57:42.250Z,6.3
2023-11-07T07:00:08.616Z,6.3
2023-11-07T07:02:34.468Z,6.4
2023-11-07T07:05:00.561Z,6.5
2023-11-07T07:07:26.756Z,6.6
2023-11-07T07:09:52.888Z,6.8
2023-11-07T07:12:18.872Z,6.9
2023-11-07T07:14:45.185Z,7
2023-11-07T07:17:11.009Z,7.2
2023-11-07T07:19:37.229Z,7.3
2023-11-07T07:22:02.537Z,7.5
2023-11-07T07:24:28.441Z,7.8
2023-11-07T07:26:54.588Z,7.9
2023-11-07T07:29:20.624Z,7.9
2023-11-07T07:31:46.874Z,7.8
2023-11-07T07:34:12.752Z,7.8
2023-11-07T07:36:38.911Z,7.7
2023-11-07T07:39:04.892Z,7.8
2023-11-07T07:41:31.006Z,7.8
2023-11-07T07:43:57.179Z,7.9
2023-11-07T07:46:23.338Z,7.9
2023-11-07T07:48:49.261Z,8
2023-11-07T07:51:15.354Z,8.1
2023-11-07T07:53:40.531Z,8.2
2023-11-07T07:56:06.553Z,8.4
2023-11-07T07:58:32.828Z,8.6
2023-11-07T08:00:58.981Z,8.8
2023-11-07T08:03:25.047Z,9
2023-11-07T08:05:51.103Z,9.2
2023-11-07T08:08:17.119Z,9.4
2023-11-07T08:10:43.230Z,9.6
2023-11-07T08:13:09.404Z,9.7
2023-11-07T08:15:35.629Z,9.9
2023-11-07T08:18:01.601Z,10
2023-11-07T08:20:27.718Z,10.2
2023-11-07T08:22:53.810Z,10.3
2023-11-07T08:25:18.939Z,10.4
2023-11-07T08:27:44.976Z,10.4
2023-11-07T08:30:11.120Z,10.5
2023-11-07T08:32:37.134Z,10.6
2023-11-07T08:35:03.093Z,10.7
2023-11-07T08:37:29.348Z,10.9
2023-11-07T08:39:55.293Z,10.9
2023-11-07T08:42:21.597Z,10.9
2023-11-07T08:44:47.581Z,10.9
2023-11-07T08:47:13.943Z,10.9
2023-11-07T08:49:39.663Z,11.1
2023-11-07T08:52:06.203Z,11
2023-11-07T08:54:32.002Z,11
2023-11-07T08:56:57.143Z,11
2023-11-07T08:59:23.352Z,11.1
2023-11-07T09:01:49.184Z,11.2
2023-11-07T09:04:15.287Z,11.2
2023-11-07T09:06:41.495Z,11.3
2023-11-07T09:09:07.845Z,11.3
2023-11-07T09:11:33.802Z,11.5
2023-11-07T09:13:59.748Z,11.5
2023-11-07T09:16:26.030Z,11.6
2023-11-07T09:18:51.897Z,11.7
2023-11-07T09:21:18.169Z,11.7
2023-11-07T09:23:44.202Z,11.7
2023-11-07T09:26:10.103Z,11.8
2023-11-07T09:28:35.490Z,11.7
2023-11-07T09:31:01.687Z,11.7
2023-11-07T09:33:27.701Z,11.8
2023-11-07T09:35:53.784Z,11.8
2023-11-07T09:38:19.898Z,11.9
2023-11-07T09:40:46.093Z,12
2023-11-07T09:43:12.021Z,12.1
2023-11-07T09:45:38.068Z,12.2
2023-11-07T09:48:04.342Z,12.2
2023-11-07T09:50:30.353Z,12.2
2023-11-07T09:52:56.149Z,12.4
2023-11-07T09:55:22.361Z,12.6
2023-11-07T09:57:48.352Z,12.6
2023-11-07T10:00:13.743Z,12.4
2023-11-07T10:02:39.850Z,12.6
2023-11-07T10:05:06.058Z,12.7
2023-11-07T10:07:32.034Z,12.8
2023-11-07T10:09:57.825Z,13
2023-11-07T10:12:24.234Z,12.9
2023-11-07T10:14:50.156Z,12.9
2023-11-07T10:17:16.164Z,13.2
2023-11-07T10:19:42.336Z,13.2
2023-11-07T10:22:08.640Z,13.5
2023-11-07T10:24:34.741Z,13.6
2023-11-07T10:27:00.800Z,13.7
2023-11-07T10:29:26.872Z,13.8
2023-11-07T10:31:52.089Z,13.6
2023-11-07T10:34:18.191Z,13.7
2023-11-07T10:36:44.209Z,13.7
2023-11-07T10:39:10.247Z,13.6
2023-11-07T10:41:36.357Z,13.5
2023-11-07T10:44:02.429Z,13.5
2023-11-07T10:46:28.564Z,13.5
2023-11-07T10:48:54.464Z,13.4
2023-11-07T10:51:20.734Z,13.6
2023-11-07T10:53:46.786Z,13.5
2023-11-07T10:56:12.902Z,13.5
2023-11-07T10:58:38.937Z,13.5
2023-11-07T11:01:05.159Z,13.6
2023-11-07T11:03:30.282Z,13.6
2023-11-07T11:08:22.465Z,13.7
2023-11-07T11:10:48.539Z,13.7
2023-11-07T11:13:14.679Z,13.7
2023-11-07T11:15:40.716Z,13.5
2023-11-07T11:18:06.515Z,13.7
2023-11-07T11:20:32.885Z,13.7
2023-11-07T11:22:58.918Z,13.7
2023-11-07T11:25:25.073Z,13.7
2023-11-07T11:27:51.300Z,13.7
2023-11-07T11:30:17.230Z,13.6
2023-11-07T11:32:43.420Z,13.3
2023-11-07T11:35:08.191Z,13.2
2023-11-07T11:37:34.301Z,12.9
2023-11-07T11:40:00.758Z,12.6
2023-11-07T11:42:26.668Z,12.4
2023-11-07T11:44:52.826Z,12.2
2023-11-07T11:47:18.729Z,12.1
2023-11-07T11:49:44.866Z,12
2023-11-07T11:52:10.954Z,12
2023-11-07T11:54:37.167Z,11.9
2023-11-07T11:57:03.358Z,11.7
2023-11-07T11:59:29.301Z,11.8
2023-11-07T12:01:55.355Z,11.7
2023-11-07T12:04:21.478Z,11.6
2023-11-07T12:06:46.481Z,11.5
2023-11-07T12:09:12.693Z,11.6
2023-11-07T12:11:38.618Z,11.7
2023-11-07T12:14:04.723Z,11.7
2023-11-07T12:16:30.808Z,11.8
2023-11-07T12:18:56.975Z,11.8
2023-11-07T12:21:23.108Z,11.8
2023-11-07T12:23:49.096Z,12
2023-11-07T12:26:15.188Z,11.8
2023-11-07T12:28:41.295Z,11.9
2023-11-07T12:31:07.393Z,11.9
2023-11-07T12:33:33.478Z,12
2023-11-07T12:35:59.573Z,12.1
2023-11-07T12:38:24.999Z,12.1
2023-11-07T12:40:50.772Z,12
2023-11-07T12:43:16.862Z,12.2
2023-11-07T12:45:42.964Z,12.2
2023-11-07T12:48:09.073Z,12.3
2023-11-07T12:50:35.142Z,12.4
2023-11-07T12:53:01.230Z,12.3
2023-11-07T12:55:27.456Z,12.3
2023-11-07T12:57:53.681Z,12.2
2023-11-07T13:00:19.626Z,12.3
2023-11-07T13:02:45.868Z,12.2
2023-11-07T13:05:11.976Z,12.3
2023-11-07T13:07:37.947Z,12.3
2023-11-07T13:10:03.074Z,12.4
2023-11-07T13:12:29.160Z,12.4
2023-11-07T13:14:55.193Z,12.4
2023-11-07T13:17:21.382Z,12.4
2023-11-07T13:19:47.293Z,12.5
2023-11-07T13:22:13.570Z,12.5
2023-11-07T13:24:39.600Z,12.5
2023-11-07T13:27:05.715Z,12.4
2023-11-07T13:29:31.670Z,12.4
2023-11-07T13:31:57.754Z,12.5
2023-11-07T13:34:24.008Z,12.4
2023-11-07T13:36:50.222Z,12.4
2023-11-07T13:39:16.290Z,12.4
2023-11-07T13:41:41.484Z,12.4
2023-11-07T13:44:07.599Z,12.4
2023-11-07T13:46:33.661Z,12.4
2023-11-07T13:48:59.443Z,12.3
2023-11-07T13:51:25.707Z,12.3
2023-11-07T13:53:51.640Z,12.3
2023-11-07T13:56:18.028Z,12.2
2023-11-07T13:58:43.867Z,12.3
2023-11-07T14:01:10.031Z,12.2
2023-11-07T14:03:36.309Z,12.2
2023-11-07T14:06:02.483Z,12.2
2023-11-07T14:08:28.413Z,12.1
2023-11-07T14:10:54.569Z,12.1
2023-11-07T14:13:19.525Z,12.1
2023-11-07T14:15:45.501Z,12.1
2023-11-07T14:18:11.583Z,12
2023-11-07T14:20:37.812Z,11.9
2023-11-07T14:23:03.995Z,11.9
2023-11-07T14:25:30.054Z,11.8
2023-11-07T14:27:55.964Z,11.8
2023-11-07T14:30:22.058Z,11.7
2023-11-07T14:32:48.145Z,11.7
2023-11-07T14:35:14.247Z,11.6
2023-11-07T14:37:40.511Z,11.6
2023-11-07T14:40:06.438Z,11.5
2023-11-07T14:42:32.827Z,11.5
2023-11-07T14:44:57.829Z,11.4
2023-11-07T14:47:23.809Z,11.4
2023-11-07T14:49:49.870Z,11.4
2023-11-07T14:52:16.193Z,11.3
2023-11-07T14:54:42.047Z,11.3
2023-11-07T14:57:08.114Z,11.3
2023-11-07T14:59:34.265Z,11.3
2023-11-07T15:02:00.491Z,11.4
2023-11-07T15:04:26.407Z,11.4
2023-11-07T15:06:52.517Z,11.4
2023-11-07T15:09:18.573Z,11.4
2023-11-07T15:11:44.697Z,11.4
2023-11-07T15:14:10.797Z,11.4
2023-11-07T15:16:35.913Z,11.4
2023-11-07T15:19:02.043Z,11.4
2023-11-07T15:21:28.258Z,11.3
2023-11-07T15:23:54.280Z,11.3
2023-11-07T15:26:20.279Z,11.3
2023-11-07T15:28:46.383Z,11.3
2023-11-07T15:31:12.440Z,11.2
2023-11-07T15:33:38.609Z,11.2
2023-11-07T15:36:04.685Z,11.1
2023-11-07T15:38:30.785Z,11
2023-11-07T15:40:57.009Z,10.9
2023-11-07T15:43:22.933Z,10.8
2023-11-07T15:45:49.029Z,10.8
2023-11-07T15:48:14.149Z,10.7
2023-11-07T15:50:40.373Z,10.7
2023-11-07T15:53:06.479Z,10.6
2023-11-07T15:55:32.549Z,10.6
2023-11-07T15:57:58.524Z,10.5
2023-11-07T16:00:24.672Z,10.4
2023-11-07T16:02:50.721Z,10.4
2023-11-07T16:05:16.869Z,10.3
2023-11-07T16:07:43.117Z,10.2
2023-11-07T16:10:09.029Z,10.1
2023-11-07T16:12:35.080Z,10.3
2023-11-07T16:15:01.282Z,10.3
2023-11-07T16:17:27.379Z,10.4
2023-11-07T16:19:52.471Z,10.4
2023-11-07T16:22:18.484Z,10.3
2023-11-07T16:24:44.593Z,10.3
2023-11-07T16:27:10.680Z,10.3
2023-11-07T16:29:36.819Z,10.3
2023-11-07T16:32:02.996Z,10.3
2023-11-07T16:34:29.078Z,10.4
2023-11-07T16:36:55.269Z,10.4
2023-11-07T16:39:21.147Z,10.5
2023-11-07T16:41:47.306Z,10.5
2023-11-07T16:44:13.553Z,10.6
2023-11-07T16:46:39.438Z,10.5
2023-11-07T16:49:05.685Z,10.5
2023-11-07T16:51:30.643Z,10.5
2023-11-07T16:53:56.744Z,10.4
2023-11-07T16:56:22.835Z,10.3
2023-11-07T16:58:48.970Z,10.2
2023-11-07T17:01:15.010Z,10.1
2023-11-07T17:03:41.098Z,10
2023-11-07T17:06:07.363Z,9.8
2023-11-07T17:08:33.408Z,9.7
2023-11-07T17:10:59.512Z,9.6
2023-11-07T17:13:25.486Z,9.6
2023-11-07T17:15:51.574Z,9.5
2023-11-07T17:18:17.659Z,9.4
2023-11-07T17:20:43.950Z,9.4
2023-11-07T17:23:08.876Z,9.3
2023-11-07T17:25:35.012Z,9.3
2023-11-07T17:28:01.216Z,9.2
2023-11-07T17:30:27.238Z,9.2
2023-11-07T17:32:53.445Z,9.2
2023-11-07T17:35:19.363Z,9.2
2023-11-07T17:37:45.474Z,9.2
2023-11-07T17:40:11.539Z,9.2
2023-11-07T17:42:37.625Z,9.1
2023-11-07T17:45:03.727Z,9
2023-11-07T17:47:29.841Z,9
2023-11-07T17:49:56.190Z,8.9
2023-11-07T17:52:22.088Z,8.8
2023-11-07T17:54:47.132Z,8.8
2023-11-07T17:57:13.232Z,8.7
2023-11-07T17:59:39.317Z,8.8
2023-11-07T18:02:05.472Z,8.8
2023-11-07T18:04:31.509Z,8.8
2023-11-07T18:06:57.627Z,8.9
2023-11-07T18:09:23.687Z,8.9
2023-11-07T18:11:49.805Z,9
2023-11-07T18:14:15.901Z,9
2023-11-07T18:16:42.005Z,8.9
2023-11-07T18:19:08.240Z,8.9
2023-11-07T18:21:34.371Z,8.9
2023-11-07T18:24:00.332Z,8.9
2023-11-07T18:26:25.398Z,8.9
2023-11-07T18:28:51.476Z,8.9
2023-11-07T18:31:17.615Z,8.9
2023-11-07T18:33:43.654Z,8.9
2023-11-07T18:36:09.793Z,8.9
2023-11-07T18:38:35.920Z,8.9
2023-11-07T18:41:02.036Z,9
2023-11-07T18:43:28.062Z,9
2023-11-07T18:45:54.167Z,9
2023-11-07T18:48:20.271Z,9
2023-11-07T18:50:46.521Z,8.9
2023-11-07T18:53:12.451Z,8.9
2023-11-07T18:55:38.598Z,8.8
2023-11-07T18:58:03.683Z,8.8
2023-11-07T19:00:29.745Z,8.8
2023-11-07T19:02:55.861Z,8.7
2023-11-07T19:05:22.112Z,8.7
2023-11-07T19:10:14.123Z,8.7
2023-11-07T19:12:40.323Z,8.7
2023-11-07T19:15:06.303Z,8.6
2023-11-07T19:17:32.415Z,8.5
2023-11-07T19:19:58.503Z,8.5
2023-11-07T19:22:24.582Z,8.4
2023-11-07T19:24:50.702Z,8.3
2023-11-07T19:27:16.788Z,8.3
2023-11-07T19:29:43.028Z,8.3
2023-11-07T19:32:09.110Z,8.3
2023-11-07T19:34:35.179Z,8.2
2023-11-07T19:37:01.371Z,8.2
2023-11-07T19:39:27.422Z,8.2
2023-11-07T19:41:53.511Z,8.2
2023-11-07T19:44:19.570Z,8.2
2023-11-07T19:46:45.711Z,8.3
2023-11-07T19:49:11.747Z,8.3
2023-11-07T19:51:37.866Z,8.2
2023-11-07T19:54:04.095Z,8.1
2023-11-07T19:56:30.041Z,8
2023-11-07T19:58:56.172Z,7.9
2023-11-07T20:01:21.264Z,7.9
2023-11-07T20:03:47.465Z,7.9
2023-11-07T20:06:13.446Z,7.8
2023-11-07T20:08:39.564Z,7.8
2023-11-07T20:11:05.623Z,7.7
2023-11-07T20:13:31.729Z,7.6
2023-11-07T20:15:57.812Z,7.6
2023-11-07T20:18:23.918Z,7.6
2023-11-07T20:20:50.009Z,7.6
2023-11-07T20:23:16.113Z,7.5
2023-11-07T20:25:42.226Z,7.5
2023-11-07T20:28:08.381Z,7.5
2023-11-07T20:30:34.398Z,7.6
2023-11-07T20:33:00.509Z,7.8
2023-11-07T20:35:26.690Z,7.9
2023-11-07T20:37:52.961Z,7.9
2023-11-07T20:40:18.847Z,7.9
2023-11-07T20:42:45.124Z,7.9
2023-11-07T20:45:09.954Z,7.8
2023-11-07T20:47:36.212Z,7.8
2023-11-07T20:50:02.300Z,7.7
2023-11-07T20:52:28.383Z,7.7
2023-11-07T20:54:54.432Z,7.7
2023-11-07T20:57:20.632Z,7.6
2023-11-07T20:59:46.684Z,7.6
2023-11-07T21:02:12.977Z,7.5
2023-11-07T21:04:38.963Z,7.7
2023-11-07T21:07:04.830Z,7.9
2023-11-07T21:09:31.017Z,7.9
2023-11-07T21:11:57.031Z,8.1
2023-11-07T21:14:23.112Z,8.1
2023-11-07T21:16:48.245Z,8.1
2023-11-07T21:19:14.408Z,8.1
2023-11-07T21:21:40.413Z,8.1
2023-11-07T21:24:06.514Z,8
2023-11-07T21:26:32.640Z,8
2023-11-07T21:28:58.690Z,7.9
2023-11-07T21:31:24.778Z,7.9
2023-11-07T21:33:50.934Z,7.8
2023-11-07T21:36:17.185Z,7.8
2023-11-07T21:38:43.126Z,7.7
2023-11-07T21:41:09.340Z,7.8
2023-11-07T21:43:35.486Z,7.8
2023-11-07T21:46:01.556Z,7.7
2023-11-07T21:48:26.631Z,7.7
2023-11-07T21:50:51.687Z,7.7
2023-11-07T21:53:17.752Z,7.8
2023-11-07T21:55:43.875Z,7.8
2023-11-07T21:58:09.869Z,7.8
2023-11-07T22:00:35.967Z,7.8
2023-11-07T22:03:02.054Z,7.8
2023-11-07T22:05:28.154Z,7.8
2023-11-07T22:07:54.314Z,7.8
2023-11-07T22:10:20.376Z,7.8
2023-11-07T22:12:46.449Z,7.9
2023-11-07T22:15:12.552Z,7.8
2023-11-07T22:17:38.638Z,7.8
2023-11-07T22:20:04.823Z,7.7
2023-11-07T22:22:29.871Z,7.7
2023-11-07T22:24:55.935Z,7.7
2023-11-07T22:27:22.048Z,7.7
2023-11-07T22:29:48.151Z,7.7
2023-11-07T22:32:14.223Z,7.7
2023-11-07T22:34:40.346Z,7.6
2023-11-07T22:37:06.496Z,7.6
2023-11-07T22:39:32.499Z,7.6
2023-11-07T22:41:58.660Z,7.6
2023-11-07T22:44:24.741Z,7.6
2023-11-07T22:46:50.837Z,7.6
2023-11-07T22:49:16.878Z,7.5
2023-11-07T22:51:43.052Z,7.5
2023-11-07T22:54:09.075Z,7.5
2023-11-07T22:56:35.208Z,7.5
2023-11-07T22:59:01.254Z,7.5
2023-11-07T23:01:27.444Z,7.5
2023-11-07T23:03:53.476Z,7.4
2023-11-07T23:06:18.687Z,7.6
2023-11-07T23:08:44.807Z,7.6
2023-11-07T23:11:10.890Z,7.7
2023-11-07T23:13:36.890Z,7.6
2023-11-07T23:16:02.998Z,7.8
2023-11-07T23:18:29.071Z,7.8
2023-11-07T23:20:55.183Z,7.8
2023-11-07T23:23:21.303Z,7.7
2023-11-07T23:25:47.371Z,7.8
2023-11-07T23:28:13.532Z,7.9
2023-11-07T23:30:39.525Z,7.9
2023-11-07T23:33:05.773Z,8
2023-11-07T23:35:31.727Z,8
2023-11-07T23:37:56.897Z,7.9
2023-11-07T23:40:22.900Z,7.9
2023-11-07T23:42:48.986Z,7.8
2023-11-07T23:45:15.105Z,7.8
2023-11-07T23:47:41.276Z,7.8
2023-11-07T23:50:07.287Z,7.8
2023-11-07T23:52:33.378Z,7.8
2023-11-07T23:54:59.469Z,7.8
2023-11-07T23:57:25.571Z,7.8
2023-11-07T23:59:51.684Z,7.8
